Ana Sayfa
METAR-TAF:

METAR-TAF

Havaalanları :

Victoria, Mahé, Seyşel Adaları

Enlem: 04-40S, Boylam: 055-31E, yükseklik: 3 m

Güncel hava durumu gözlemi

Rapor saat 11:00 UTC de 47 dakika önce yapıldı.
Rüzgar doğu/güneydoğudan 6 kt, doğu/kuzeydoğu ve güney/güneydoğu arasında değişken
Sıcaklık 31°C
Nem 75%
Basınç 1009 hPa
Görüş mesafesi 10 km veya daha fazla
2700 ft yükseklikte parçalı bulutlu

METAR: FSIA 241100Z 11006KT 060V160 9999 SCT027 31/26 Q1009 NOSIG

Saat: 15:47 (11:47 UTC)

Tahmin

Rapor saat 11:01 UTC de 46 dakika önce yapıldı.
Ayın 24'si saat 12 UTC'den ayın 25'si saat 12 UTC'ye kadar geçerli Tahmin
Rüzgar değişken yönden 4 kt
Görüş mesafesi 10 km veya daha fazla
2500 ft yükseklikte az bulutlu

TAF: FSIA 241101Z 2412/2512 VRB04KT 9999 FEW025

4.000'den fazla havaalanı için hava durumu gözlemleri ve tahminleri (METAR ve TAF raporları).

Kullanılabilir istasyonlar harita üzerinde sarı ve kırmızı noktalarla gösterilir.

İstasyonun adını görmek için fareyi noktanın üzerinde gezdirin.

Sonrasında hava gözlem ve tahminlerini görmek için tıklayın.

Haritayı değiştirmek için: yaklaştırmak için siyah artı işaretli yeşil düğmeye ve uzaklaştırmak için de eksi işaretli düğmeye hızla tıklayın; bitişik haritalar için yeşil okları kullanın.


METAR-TAF: